Time;durP1;ratioP1;P1;durP2;ratioP2;P2;SDS_P1;SDS_P2;PMS_P1;PMS_P2;Temp;Humidity;BMP_temperature;BMP_pressure;BME280_temperature;BME280_humidity;BME280_pressure;Samples;Min_cycle;Max_cycle;Signal;HPM_P1;HPM_P2
2023/01/19 00:01:45;;;;;;;6.80;4.45;;;-3.50;99.90;;;;;;5030918;28;20663;-70
2023/01/19 00:04:12;;;;;;;6.57;5.70;;;-3.60;99.90;;;;;;5030087;28;20284;-69
2023/01/19 00:06:39;;;;;;;13.65;5.30;;;-3.60;99.90;;;;;;5030728;28;20312;-70
2023/01/19 00:09:06;;;;;;;8.15;4.47;;;-3.60;99.90;;;;;;5029768;28;20201;-70
2023/01/19 00:11:34;;;;;;;6.10;4.95;;;-3.50;99.90;;;;;;5032935;28;20226;-70
2023/01/19 00:14:01;;;;;;;5.78;4.15;;;-3.50;99.90;;;;;;5034510;28;20198;-70
2023/01/19 00:16:28;;;;;;;6.50;4.57;;;-3.50;99.90;;;;;;5034661;28;20225;-69
2023/01/19 00:18:54;;;;;;;6.95;4.72;;;-3.50;99.90;;;;;;5034289;28;20201;-70
2023/01/19 00:21:22;;;;;;;7.78;3.95;;;-3.50;99.90;;;;;;5034609;28;20198;-70
2023/01/19 00:23:51;;;;;;;5.38;4.22;;;-3.50;99.90;;;;;;5034715;28;20205;-70
2023/01/19 00:26:20;;;;;;;7.53;4.55;;;-3.50;99.90;;;;;;5033858;28;20222;-70
2023/01/19 00:28:49;;;;;;;5.95;5.40;;;-3.60;99.90;;;;;;5033920;28;20205;-70
2023/01/19 00:31:19;;;;;;;4.43;4.03;;;-3.50;99.90;;;;;;5033878;28;20308;-70
2023/01/19 00:33:47;;;;;;;7.85;4.72;;;-3.50;99.90;;;;;;5034334;28;20875;-70
2023/01/19 00:36:14;;;;;;;5.43;4.55;;;-3.50;99.90;;;;;;5034015;28;20222;-69
2023/01/19 00:38:41;;;;;;;4.90;4.38;;;-3.50;99.90;;;;;;5033603;28;20204;-70
2023/01/19 00:41:08;;;;;;;7.70;4.53;;;-3.40;99.90;;;;;;5033983;28;20206;-70
2023/01/19 00:43:34;;;;;;;5.40;4.22;;;-3.50;99.90;;;;;;5033973;28;20292;-69
2023/01/19 00:46:02;;;;;;;8.70;4.57;;;-3.40;99.90;;;;;;5033959;28;20597;-69
2023/01/19 00:48:29;;;;;;;6.45;4.70;;;-3.40;99.90;;;;;;5033438;28;20473;-70
2023/01/19 00:50:56;;;;;;;6.75;4.50;;;-3.40;99.90;;;;;;5033906;28;20585;-70
2023/01/19 00:53:23;;;;;;;7.43;4.63;;;-3.40;99.90;;;;;;5033738;28;20256;-70
2023/01/19 00:55:50;;;;;;;5.35;4.35;;;-3.50;99.90;;;;;;5033626;28;20683;-70
2023/01/19 00:58:16;;;;;;;7.45;5.28;;;-3.50;99.90;;;;;;5033299;28;20562;-70
2023/01/19 01:00:43;;;;;;;6.40;5.25;;;-3.50;99.90;;;;;;5033581;28;20201;-70
2023/01/19 01:03:11;;;;;;;5.93;4.35;;;-3.60;99.90;;;;;;5033557;28;20673;-71
2023/01/19 01:05:41;;;;;;;7.97;4.10;;;-3.60;99.90;;;;;;5033465;28;20225;-69
2023/01/19 01:08:08;;;;;;;7.50;4.35;;;-3.60;99.90;;;;;;5033459;28;20264;-70
2023/01/19 01:10:34;;;;;;;7.93;4.47;;;-3.60;99.90;;;;;;5033441;28;20202;-70
2023/01/19 01:13:01;;;;;;;5.20;4.10;;;-3.70;99.90;;;;;;5033290;28;20197;-69
2023/01/19 01:15:28;;;;;;;6.45;4.50;;;-3.70;99.90;;;;;;5033417;28;20228;-70
2023/01/19 01:17:56;;;;;;;7.38;4.93;;;-3.70;99.90;;;;;;5033163;28;20271;-69
2023/01/19 01:20:27;;;;;;;4.90;4.38;;;-3.80;99.90;;;;;;5032993;28;20213;-70
2023/01/19 01:22:55;;;;;;;5.55;4.18;;;-3.70;99.90;;;;;;5031903;28;20594;-70
2023/01/19 01:25:24;;;;;;;8.52;4.38;;;-3.70;99.90;;;;;;5032966;28;20225;-70
2023/01/19 01:27:52;;;;;;;5.18;4.13;;;-3.70;99.90;;;;;;5033433;28;20581;-70
2023/01/19 01:30:20;;;;;;;8.18;4.07;;;-3.70;99.90;;;;;;5032546;28;20241;-70
2023/01/19 01:32:46;;;;;;;5.45;4.65;;;-3.80;99.90;;;;;;5033103;28;20232;-69
2023/01/19 01:35:14;;;;;;;6.72;5.95;;;-3.80;99.90;;;;;;5032754;28;20213;-70
2023/01/19 01:37:42;;;;;;;4.80;3.70;;;-3.80;99.90;;;;;;5033235;28;20206;-70
2023/01/19 01:40:12;;;;;;;3.67;3.35;;;-3.80;99.90;;;;;;5032378;28;20691;-70
2023/01/19 01:42:41;;;;;;;7.03;3.83;;;-3.80;99.90;;;;;;5032992;28;20664;-70
2023/01/19 01:45:25;;;;;;;9.43;4.45;;;-3.70;99.90;;;;;;5032573;28;20226;-71
2023/01/19 01:47:53;;;;;;;7.28;4.05;;;-3.80;99.90;;;;;;5032956;28;20209;-70
2023/01/19 01:50:22;;;;;;;4.40;3.35;;;-3.80;99.90;;;;;;5032377;28;20201;-70
2023/01/19 01:52:55;;;;;;;5.03;4.10;;;-3.70;99.90;;;;;;5032737;28;20285;-70
2023/01/19 01:55:24;;;;;;;5.35;4.18;;;-3.70;99.90;;;;;;5032437;28;20240;-70
2023/01/19 01:57:56;;;;;;;10.48;3.72;;;-3.80;99.90;;;;;;5032791;28;20209;-70
2023/01/19 02:00:24;;;;;;;7.18;4.20;;;-3.80;99.90;;;;;;5031768;28;20210;-70
2023/01/19 02:02:50;;;;;;;5.40;4.47;;;-3.80;99.90;;;;;;5032275;28;20202;-70
2023/01/19 02:05:21;;;;;;;4.40;3.40;;;-3.80;99.90;;;;;;5032365;28;20347;-70
2023/01/19 02:13:26;;;;;;;5.43;3.80;;;-3.90;99.90;;;;;;5032042;28;20261;-69
2023/01/19 02:15:55;;;;;;;7.88;4.95;;;-3.90;99.90;;;;;;5031851;28;20218;-70
2023/01/19 02:18:24;;;;;;;5.88;4.05;;;-3.80;99.90;;;;;;5031545;28;20202;-69
2023/01/19 02:20:59;;;;;;;8.38;3.70;;;-3.90;99.90;;;;;;5032133;28;20209;-70
2023/01/19 02:23:39;;;;;;;4.00;3.65;;;-3.90;99.90;;;;;;5031957;28;20240;-69
2023/01/19 02:26:08;;;;;;;4.97;3.83;;;-3.90;99.90;;;;;;5031705;28;20251;-69
2023/01/19 02:28:37;;;;;;;4.90;3.50;;;-3.90;99.90;;;;;;5031678;28;20212;-70
2023/01/19 02:31:05;;;;;;;3.50;2.75;;;-3.90;99.90;;;;;;5031411;28;20205;-68
2023/01/19 02:33:31;;;;;;;10.55;3.70;;;-3.90;99.90;;;;;;5031197;28;20242;-69
2023/01/19 02:35:59;;;;;;;8.07;4.07;;;-3.90;99.90;;;;;;5031356;28;20224;-69
2023/01/19 02:38:28;;;;;;;5.22;3.70;;;-3.90;99.90;;;;;;5031401;28;20208;-69
2023/01/19 02:40:59;;;;;;;7.90;4.15;;;-3.80;99.90;;;;;;5031744;28;20212;-69
2023/01/19 02:43:27;;;;;;;4.35;3.28;;;-3.80;99.90;;;;;;5031528;28;20228;-70
2023/01/19 02:45:54;;;;;;;3.97;3.67;;;-3.80;99.90;;;;;;5031910;28;20226;-69
2023/01/19 02:48:21;;;;;;;4.47;3.78;;;-3.80;99.90;;;;;;5031029;28;20202;-69
2023/01/19 02:50:51;;;;;;;4.13;3.72;;;-3.90;99.90;;;;;;5031838;28;20216;-69
2023/01/19 02:54:07;;;;;;;4.93;3.78;;;-3.90;99.90;;;;;;5031456;28;20588;-69
2023/01/19 02:56:50;;;;;;;3.88;3.20;;;-3.90;99.90;;;;;;4970287;28;20299;-69
2023/01/19 02:59:29;;;;;;;4.63;3.72;;;-3.90;99.90;;;;;;5030890;28;20224;-69
2023/01/19 03:02:10;;;;;;;6.45;4.13;;;-3.90;99.90;;;;;;5031627;28;20194;-69
2023/01/19 03:04:52;;;;;;;10.85;4.70;;;-3.90;99.90;;;;;;5031238;28;20197;-69
2023/01/19 03:07:30;;;;;;;4.40;3.25;;;-3.90;99.90;;;;;;5031491;28;20212;-69
2023/01/19 03:10:03;;;;;;;6.25;3.10;;;-3.90;99.90;;;;;;5030662;28;20216;-69
2023/01/19 03:12:39;;;;;;;4.38;3.20;;;-3.90;99.90;;;;;;5031210;28;20569;-69
2023/01/19 03:15:15;;;;;;;6.05;4.13;;;-3.90;99.90;;;;;;5030966;28;20708;-69
2023/01/19 03:17:45;;;;;;;7.93;3.75;;;-3.90;99.90;;;;;;5031328;28;20298;-68
2023/01/19 03:20:14;;;;;;;4.93;3.70;;;-3.90;99.90;;;;;;5030664;28;20202;-71
2023/01/19 03:22:43;;;;;;;10.10;5.10;;;-4.00;99.90;;;;;;5030788;28;20208;-71
2023/01/19 03:25:11;;;;;;;5.50;3.80;;;-4.00;99.90;;;;;;5031047;28;20308;-70
2023/01/19 03:27:42;;;;;;;6.00;4.00;;;-4.00;99.90;;;;;;5030783;28;20205;-70
2023/01/19 03:30:13;;;;;;;5.47;4.63;;;-4.00;99.90;;;;;;5030562;28;20201;-70
2023/01/19 03:32:44;;;;;;;4.90;3.53;;;-4.00;99.90;;;;;;5030621;28;20708;-71
2023/01/19 03:35:14;;;;;;;5.30;3.63;;;-4.00;99.90;;;;;;5030763;28;20237;-71
2023/01/19 03:37:44;;;;;;;5.85;4.47;;;-4.00;99.90;;;;;;5030659;28;20664;-70
2023/01/19 03:40:12;;;;;;;3.53;2.53;;;-4.00;99.90;;;;;;5030428;28;20715;-70
2023/01/19 03:42:42;;;;;;;3.67;3.38;;;-4.00;99.90;;;;;;5030484;28;20220;-71
2023/01/19 03:45:10;;;;;;;3.90;3.30;;;-4.00;99.90;;;;;;5030087;28;20605;-71
2023/01/19 03:47:38;;;;;;;8.10;4.45;;;-3.90;99.90;;;;;;5030759;28;20697;-71
2023/01/19 03:50:11;;;;;;;6.30;3.38;;;-4.00;99.90;;;;;;5030351;28;20208;-70
2023/01/19 03:52:38;;;;;;;7.57;4.50;;;-4.00;99.90;;;;;;5030594;28;20312;-69
2023/01/19 03:55:06;;;;;;;4.43;3.50;;;-3.90;99.90;;;;;;5030344;28;20234;-69
2023/01/19 03:57:33;;;;;;;6.72;4.13;;;-3.90;99.90;;;;;;5030723;28;20261;-69
2023/01/19 04:00:01;;;;;;;6.53;4.25;;;-3.90;99.90;;;;;;5029866;28;20210;-69
2023/01/19 04:02:28;;;;;;;4.20;3.65;;;-3.90;99.90;;;;;;5030390;28;20202;-69
2023/01/19 04:04:55;;;;;;;6.22;4.40;;;-3.90;99.90;;;;;;5030386;28;20208;-69
2023/01/19 04:07:21;;;;;;;4.88;3.95;;;-3.80;99.90;;;;;;5030670;28;20202;-69
2023/01/19 04:09:48;;;;;;;5.97;3.90;;;-3.80;99.90;;;;;;5030201;28;20210;-69
2023/01/19 04:12:15;;;;;;;5.18;3.95;;;-3.80;99.90;;;;;;5030457;28;20228;-68
2023/01/19 04:14:42;;;;;;;5.55;4.22;;;-3.80;99.90;;;;;;5030583;28;20906;-69
2023/01/19 04:17:10;;;;;;;7.65;4.78;;;-3.80;99.90;;;;;;5030640;28;20202;-69
2023/01/19 04:19:37;;;;;;;5.25;3.85;;;-3.80;99.90;;;;;;5029936;28;20206;-69
2023/01/19 04:22:04;;;;;;;4.90;4.32;;;-3.80;99.90;;;;;;5030224;28;20194;-68
2023/01/19 04:24:31;;;;;;;8.20;5.15;;;-3.80;99.90;;;;;;5030079;28;20217;-69
2023/01/19 04:26:57;;;;;;;6.30;4.85;;;-3.80;99.90;;;;;;5030335;28;20233;-69
2023/01/19 04:29:24;;;;;;;5.65;4.47;;;-3.80;99.90;;;;;;5029459;28;20225;-69
2023/01/19 04:31:51;;;;;;;9.60;4.88;;;-3.90;99.90;;;;;;5029802;28;20668;-68
2023/01/19 04:34:19;;;;;;;10.38;5.85;;;-3.90;99.90;;;;;;5024098;28;20555;-69
2023/01/19 04:36:49;;;;;;;9.65;4.70;;;-3.90;99.90;;;;;;5014047;28;20219;-69
2023/01/19 04:39:16;;;;;;;7.38;4.38;;;-3.90;99.90;;;;;;5018076;28;20195;-69
2023/01/19 04:41:43;;;;;;;6.63;4.72;;;-3.90;99.90;;;;;;5014945;28;20198;-69
2023/01/19 04:44:10;;;;;;;8.90;5.88;;;-3.90;99.90;;;;;;5017905;28;20194;-70
2023/01/19 04:46:37;;;;;;;10.50;5.55;;;-3.90;99.90;;;;;;5009548;28;20218;-70
2023/01/19 04:49:04;;;;;;;5.90;3.78;;;-3.90;99.90;;;;;;5009758;28;20600;-69
2023/01/19 04:51:33;;;;;;;9.48;5.55;;;-3.90;99.90;;;;;;5012426;28;20202;-70
2023/01/19 04:54:00;;;;;;;5.32;3.35;;;-4.00;99.90;;;;;;5018197;28;20215;-70
2023/01/19 04:56:27;;;;;;;7.53;4.38;;;-3.90;99.90;;;;;;5012237;28;20653;-69
2023/01/19 04:58:54;;;;;;;5.07;4.10;;;-4.00;99.90;;;;;;5032968;28;20205;-69
2023/01/19 05:01:21;;;;;;;7.82;4.38;;;-4.00;99.90;;;;;;5033096;28;20198;-69
2023/01/19 05:03:48;;;;;;;7.40;5.47;;;-4.00;99.90;;;;;;5033162;28;20200;-69
2023/01/19 05:06:15;;;;;;;4.65;4.13;;;-3.90;99.90;;;;;;5013774;28;20228;-69
2023/01/19 05:08:43;;;;;;;7.90;4.70;;;-4.00;99.90;;;;;;5012626;28;20621;-69
2023/01/19 05:11:10;;;;;;;5.80;4.35;;;-4.00;99.90;;;;;;5018858;28;20202;-69
2023/01/19 05:13:37;;;;;;;6.78;4.57;;;-4.00;99.90;;;;;;5032038;28;20221;-70
2023/01/19 05:16:05;;;;;;;14.93;5.82;;;-4.00;99.90;;;;;;5015005;28;20246;-69
2023/01/19 05:18:35;;;;;;;6.00;4.50;;;-4.10;99.90;;;;;;5032326;28;20917;-69
2023/01/19 05:21:05;;;;;;;7.32;4.38;;;-4.10;99.90;;;;;;5026647;28;20398;-70
2023/01/19 05:23:31;;;;;;;8.30;4.78;;;-4.10;99.90;;;;;;5032035;28;20509;-69
2023/01/19 05:26:00;;;;;;;9.23;4.68;;;-4.10;99.90;;;;;;5026628;28;20221;-69
2023/01/19 05:28:27;;;;;;;5.28;4.05;;;-4.00;99.90;;;;;;5027836;28;20200;-69
2023/01/19 05:30:54;;;;;;;6.45;4.80;;;-4.00;99.90;;;;;;5032270;28;20206;-69
2023/01/19 05:33:21;;;;;;;7.60;5.00;;;-4.00;99.90;;;;;;5030726;28;20230;-69
2023/01/19 05:35:49;;;;;;;4.53;3.83;;;-4.00;99.90;;;;;;5030231;28;20225;-69
2023/01/19 05:38:16;;;;;;;5.47;4.10;;;-4.00;99.90;;;;;;5030230;28;20206;-69
2023/01/19 05:40:43;;;;;;;7.28;4.53;;;-4.00;99.90;;;;;;5030605;28;20212;-69
2023/01/19 05:43:12;;;;;;;5.80;4.40;;;-4.00;99.90;;;;;;5030506;28;20216;-69
2023/01/19 05:45:39;;;;;;;4.20;3.80;;;-4.00;99.90;;;;;;5029958;28;20231;-69
2023/01/19 05:48:07;;;;;;;7.18;4.75;;;-4.10;99.90;;;;;;5032771;28;20212;-69
2023/01/19 05:50:34;;;;;;;6.95;2.88;;;-4.00;99.90;;;;;;5032546;28;20297;-69
2023/01/19 05:53:01;;;;;;;7.95;5.32;;;-4.10;99.90;;;;;;5032819;28;20226;-70
2023/01/19 05:55:29;;;;;;;4.45;3.83;;;-4.10;99.90;;;;;;5032692;28;20226;-69
2023/01/19 05:57:56;;;;;;;7.15;4.30;;;-4.10;99.90;;;;;;5032474;28;20208;-69
2023/01/19 06:00:26;;;;;;;7.35;4.38;;;-4.10;99.90;;;;;;5032368;28;20205;-69
2023/01/19 06:02:53;;;;;;;4.60;3.90;;;-4.10;99.90;;;;;;5032412;28;20712;-69
2023/01/19 06:05:20;;;;;;;5.88;4.40;;;-4.20;99.90;;;;;;5032763;28;20233;-70
2023/01/19 06:07:47;;;;;;;10.00;3.80;;;-4.20;99.90;;;;;;5031975;28;20212;-70
2023/01/19 06:10:13;;;;;;;9.18;4.80;;;-4.10;99.90;;;;;;5031536;28;20205;-69
2023/01/19 06:12:41;;;;;;;4.45;4.05;;;-4.10;99.90;;;;;;5032134;28;20364;-70
2023/01/19 06:15:08;;;;;;;5.72;4.13;;;-4.10;99.90;;;;;;5032253;28;20667;-68
2023/01/19 06:17:36;;;;;;;8.50;5.07;;;-4.10;99.90;;;;;;5032278;28;20216;-69
2023/01/19 06:20:04;;;;;;;6.82;4.22;;;-4.10;99.90;;;;;;5031918;28;20210;-69
2023/01/19 06:22:30;;;;;;;7.22;3.60;;;-4.10;99.90;;;;;;5032431;28;20202;-69
2023/01/19 06:24:57;;;;;;;5.78;4.50;;;-4.10;99.90;;;;;;5031835;28;20610;-69
2023/01/19 06:27:24;;;;;;;5.50;3.70;;;-4.20;99.90;;;;;;5032153;28;20206;-69
2023/01/19 06:29:51;;;;;;;4.65;4.15;;;-4.20;99.90;;;;;;5031576;28;20214;-70
2023/01/19 06:32:18;;;;;;;6.72;4.40;;;-4.10;99.90;;;;;;5032127;28;20206;-70
2023/01/19 06:34:46;;;;;;;5.90;3.53;;;-4.10;99.90;;;;;;5032103;28;20221;-69
2023/01/19 06:37:15;;;;;;;3.83;3.42;;;-4.10;99.90;;;;;;5031940;28;20712;-70
2023/01/19 06:39:42;;;;;;;4.68;3.88;;;-4.10;99.90;;;;;;5031520;28;20297;-70
2023/01/19 06:42:09;;;;;;;3.75;3.45;;;-4.10;99.90;;;;;;5032041;28;20213;-69
2023/01/19 06:44:35;;;;;;;4.68;4.10;;;-4.10;99.90;;;;;;5031821;28;20566;-68
2023/01/19 06:47:02;;;;;;;4.22;3.85;;;-4.00;99.90;;;;;;5031675;28;20667;-69
2023/01/19 06:49:29;;;;;;;4.07;3.58;;;-4.00;99.90;;;;;;5031377;28;20521;-69
2023/01/19 06:51:57;;;;;;;6.53;3.95;;;-3.90;99.90;;;;;;5031540;28;20198;-69
2023/01/19 06:54:24;;;;;;;4.88;3.85;;;-3.90;99.90;;;;;;5031799;28;20751;-70
2023/01/19 06:56:51;;;;;;;5.50;4.05;;;-3.80;99.90;;;;;;5031443;28;20235;-69
2023/01/19 06:59:18;;;;;;;6.30;3.75;;;-3.80;99.90;;;;;;5031501;28;20284;-69
2023/01/19 07:01:44;;;;;;;6.53;4.70;;;-3.80;99.90;;;;;;5031407;28;20206;-69
2023/01/19 07:04:13;;;;;;;6.53;3.83;;;-3.80;99.90;;;;;;5031226;28;20202;-69
2023/01/19 07:06:40;;;;;;;5.63;3.55;;;-3.90;99.90;;;;;;5031176;28;20221;-69
2023/01/19 07:09:10;;;;;;;7.85;4.43;;;-3.90;99.90;;;;;;5030902;28;20227;-69
2023/01/19 07:11:37;;;;;;;5.40;3.33;;;-3.90;99.90;;;;;;5031257;28;20198;-69
2023/01/19 07:14:04;;;;;;;6.47;3.22;;;-3.90;99.90;;;;;;5022618;28;20584;-69
2023/01/19 07:16:31;;;;;;;4.20;2.72;;;-3.90;99.90;;;;;;5014167;28;20713;-70
2023/01/19 07:18:57;;;;;;;5.15;2.80;;;-3.90;99.90;;;;;;5010992;28;20209;-69
2023/01/19 07:21:24;;;;;;;3.97;3.42;;;-3.90;99.90;;;;;;5011418;28;20210;-69
2023/01/19 07:23:52;;;;;;;4.40;3.50;;;-3.90;99.90;;;;;;5011262;28;20209;-69
2023/01/19 07:26:20;;;;;;;5.47;3.65;;;-3.90;99.90;;;;;;5011400;28;20590;-69
2023/01/19 07:28:47;;;;;;;4.20;3.28;;;-3.80;99.90;;;;;;5010995;28;20202;-69
2023/01/19 07:31:14;;;;;;;7.05;3.75;;;-3.90;99.90;;;;;;5011464;28;20217;-70
2023/01/19 07:33:41;;;;;;;4.10;3.28;;;-3.90;99.90;;;;;;5011205;28;20237;-69
2023/01/19 07:36:08;;;;;;;4.07;2.80;;;-3.80;99.90;;;;;;5011332;28;20229;-69
2023/01/19 07:38:35;;;;;;;2.92;2.55;;;-3.80;99.90;;;;;;5011051;28;20199;-69
2023/01/19 07:41:02;;;;;;;4.60;2.97;;;-3.80;99.90;;;;;;5011070;28;20217;-69
2023/01/19 07:43:31;;;;;;;4.80;2.72;;;-3.80;99.90;;;;;;5011365;28;20226;-69
2023/01/19 07:45:59;;;;;;;5.20;3.28;;;-3.80;99.90;;;;;;5011045;28;20226;-70
2023/01/19 07:48:26;;;;;;;6.40;3.58;;;-3.80;99.90;;;;;;5010976;28;20233;-70
2023/01/19 07:50:53;;;;;;;4.07;2.97;;;-3.70;99.90;;;;;;5010982;28;20217;-69
2023/01/19 07:53:21;;;;;;;4.90;3.70;;;-3.60;99.90;;;;;;5010983;28;20223;-70
2023/01/19 07:55:55;;;;;;;4.38;3.38;;;-3.60;99.90;;;;;;5011002;28;21077;-70
2023/01/19 07:58:22;;;;;;;4.65;3.53;;;-3.60;99.90;;;;;;5010708;28;20686;-70
2023/01/19 08:00:50;;;;;;;4.45;3.67;;;-3.50;99.90;;;;;;5010685;28;20270;-70
2023/01/19 08:03:17;;;;;;;3.90;3.25;;;-3.40;99.90;;;;;;5010797;28;20198;-70
2023/01/19 08:05:44;;;;;;;5.93;4.70;;;-3.10;99.90;;;;;;5010737;28;20221;-69
2023/01/19 08:08:11;;;;;;;5.28;3.58;;;-2.90;99.90;;;;;;5010627;28;20198;-69
2023/01/19 08:10:38;;;;;;;3.13;2.72;;;-2.80;99.90;;;;;;5010526;28;20199;-69
2023/01/19 08:13:05;;;;;;;4.55;3.28;;;-2.80;99.90;;;;;;5010769;28;20202;-69
2023/01/19 08:15:32;;;;;;;8.27;4.40;;;-2.80;99.90;;;;;;5010569;28;20492;-70
2023/01/19 08:18:04;;;;;;;5.30;3.15;;;-2.80;99.90;;;;;;5010981;28;20210;-70
2023/01/19 08:20:32;;;;;;;4.07;3.38;;;-2.70;99.90;;;;;;5010976;28;20301;-69
2023/01/19 08:22:59;;;;;;;5.75;3.50;;;-2.60;99.90;;;;;;5014297;28;20214;-70
2023/01/19 08:25:31;;;;;;;4.78;3.08;;;-2.50;99.90;;;;;;5011237;28;20223;-70
2023/01/19 08:27:58;;;;;;;4.32;3.00;;;-2.50;99.90;;;;;;5010799;28;20221;-70
2023/01/19 08:30:25;;;;;;;3.33;2.58;;;-2.70;99.90;;;;;;5010405;28;20301;-70
2023/01/19 08:32:53;;;;;;;4.90;3.30;;;-2.80;99.90;;;;;;5013190;28;20752;-70
2023/01/19 08:35:22;;;;;;;4.68;2.80;;;-2.80;99.90;;;;;;5014642;28;20218;-70
2023/01/19 08:37:49;;;;;;;4.85;3.75;;;-2.30;99.90;;;;;;5014246;28;20817;-70
2023/01/19 08:40:17;;;;;;;3.92;3.55;;;-1.40;99.90;;;;;;5014009;28;20198;-70
2023/01/19 08:42:43;;;;;;;3.90;3.20;;;-0.50;99.90;;;;;;5014037;28;20206;-70
2023/01/19 08:45:11;;;;;;;3.70;3.30;;;0.60;99.90;;;;;;5014594;28;20233;-69
2023/01/19 08:47:37;;;;;;;3.55;3.05;;;2.00;99.90;;;;;;5014614;28;20198;-70
2023/01/19 08:50:05;;;;;;;4.32;3.92;;;3.50;99.90;;;;;;5014125;28;20209;-69
2023/01/19 08:52:33;;;;;;;5.25;2.95;;;4.90;99.90;;;;;;5014145;28;20207;-70
2023/01/19 08:55:00;;;;;;;3.58;3.20;;;5.40;99.90;;;;;;5013872;28;20226;-70
2023/01/19 08:57:27;;;;;;;3.65;2.80;;;4.50;99.90;;;;;;5014174;28;20206;-70
2023/01/19 08:59:54;;;;;;;5.55;3.65;;;4.00;99.90;;;;;;5013582;28;20202;-70
2023/01/19 09:02:21;;;;;;;3.45;2.97;;;4.40;99.90;;;;;;5013904;28;20569;-71
2023/01/19 09:04:49;;;;;;;3.38;3.00;;;4.60;99.90;;;;;;5021620;28;20210;-69
2023/01/19 09:07:16;;;;;;;6.50;3.60;;;4.60;99.90;;;;;;5032149;28;20256;-70
2023/01/19 09:09:44;;;;;;;5.10;3.60;;;5.20;99.90;;;;;;5032371;28;20198;-70
2023/01/19 09:12:11;;;;;;;4.90;3.30;;;5.30;99.90;;;;;;5032958;28;20201;-70
2023/01/19 09:14:38;;;;;;;4.43;3.60;;;5.80;99.90;;;;;;5032319;28;20316;-70
2023/01/19 09:17:05;;;;;;;4.50;3.92;;;5.50;99.90;;;;;;5033180;28;20225;-70
2023/01/19 09:19:32;;;;;;;4.72;3.50;;;5.00;99.90;;;;;;5032067;28;20217;-71
2023/01/19 09:21:59;;;;;;;4.45;3.55;;;4.60;99.90;;;;;;5032706;28;20208;-71
2023/01/19 09:24:26;;;;;;;3.58;3.25;;;4.70;99.90;;;;;;5032992;28;20695;-70
2023/01/19 09:26:54;;;;;;;3.45;3.03;;;4.10;99.90;;;;;;5031992;28;20295;-70
2023/01/19 09:29:21;;;;;;;4.75;3.90;;;4.00;99.90;;;;;;5032597;28;20292;-70
2023/01/19 09:31:48;;;;;;;3.78;2.88;;;4.20;99.90;;;;;;5032686;28;20289;-71
2023/01/19 09:34:15;;;;;;;4.90;3.40;;;4.30;99.90;;;;;;5032562;28;20221;-69
2023/01/19 09:36:42;;;;;;;4.85;3.40;;;4.60;99.90;;;;;;5032356;28;20229;-70
2023/01/19 09:39:10;;;;;;;3.95;3.55;;;4.70;99.90;;;;;;5031760;28;20202;-70
2023/01/19 09:41:39;;;;;;;3.97;3.08;;;4.20;99.90;;;;;;5032257;28;20205;-70
2023/01/19 09:44:17;;;;;;;3.08;2.83;;;3.40;99.90;;;;;;5031336;28;20632;-69
2023/01/19 09:46:44;;;;;;;4.40;3.72;;;2.60;99.90;;;;;;5032118;28;20218;-69
2023/01/19 09:49:14;;;;;;;5.78;3.30;;;2.10;99.90;;;;;;5031715;28;20297;-70
2023/01/19 09:51:44;;;;;;;3.20;2.90;;;2.40;99.90;;;;;;5031730;28;20296;-70
2023/01/19 09:54:14;;;;;;;3.47;2.58;;;4.60;99.90;;;;;;5032149;28;20497;-71
2023/01/19 09:56:42;;;;;;;3.47;2.90;;;6.50;99.90;;;;;;5031721;28;20218;-70
2023/01/19 09:59:21;;;;;;;4.57;2.60;;;7.70;99.20;;;;;;5032070;28;20578;-70
2023/01/19 10:02:14;;;;;;;5.15;3.47;;;6.80;99.60;;;;;;5031766;28;20613;-70
2023/01/19 10:04:42;;;;;;;3.47;2.75;;;6.00;99.90;;;;;;5031493;28;20632;-70
2023/01/19 10:07:24;;;;;;;3.30;3.00;;;4.70;99.90;;;;;;5031521;28;20202;-70
2023/01/19 10:10:04;;;;;;;4.75;2.72;;;3.40;99.90;;;;;;5029109;28;20202;-70
2023/01/19 10:12:43;;;;;;;3.00;2.47;;;2.50;99.90;;;;;;5032028;28;20201;-70
2023/01/19 10:15:23;;;;;;;5.82;4.45;;;1.80;99.90;;;;;;5031420;28;20226;-70
2023/01/19 10:18:03;;;;;;;4.35;3.55;;;1.30;99.90;;;;;;5030958;28;20572;-70
2023/01/19 10:20:36;;;;;;;5.82;3.05;;;0.80;99.90;;;;;;5031353;28;20201;-70
2023/01/19 10:23:16;;;;;;;3.80;2.50;;;0.30;99.90;;;;;;5031634;28;20210;-69
2023/01/19 10:25:43;;;;;;;6.30;5.13;;;0.00;99.90;;;;;;5031506;28;20214;-70
2023/01/19 10:28:13;;;;;;;3.45;2.97;;;-0.10;99.90;;;;;;5031089;28;20548;-70
2023/01/19 10:30:43;;;;;;;4.35;2.90;;;0.00;99.90;;;;;;5031180;28;20199;-70
2023/01/19 10:33:12;;;;;;;2.65;2.45;;;0.20;99.90;;;;;;5031535;28;20205;-70
2023/01/19 10:35:39;;;;;;;3.08;2.65;;;0.10;99.90;;;;;;5031046;28;20225;-70
2023/01/19 10:38:05;;;;;;;5.93;2.00;;;0.20;99.90;;;;;;5028075;28;20208;-70
2023/01/19 10:40:36;;;;;;;4.28;3.40;;;0.10;99.90;;;;;;5030205;28;20205;-69
2023/01/19 10:43:34;;;;;;;4.32;2.88;;;-0.10;99.90;;;;;;5031194;28;20552;-70
2023/01/19 10:46:05;;;;;;;4.00;2.63;;;-0.20;99.90;;;;;;5030813;28;20226;-70
2023/01/19 10:48:38;;;;;;;3.05;2.75;;;-0.10;99.90;;;;;;5015034;28;20210;-70
2023/01/19 10:51:06;;;;;;;6.10;2.97;;;0.00;99.90;;;;;;5010832;28;20201;-70
2023/01/19 10:53:33;;;;;;;5.18;2.85;;;0.00;99.90;;;;;;5011109;28;20210;-69
2023/01/19 10:56:12;;;;;;;4.38;2.60;;;0.20;99.90;;;;;;5010342;28;20222;-70
2023/01/19 10:58:40;;;;;;;3.15;2.88;;;0.40;99.90;;;;;;5010219;28;20206;-69
2023/01/19 11:01:17;;;;;;;2.15;1.95;;;0.30;99.90;;;;;;5011193;28;20230;-70
2023/01/19 11:03:44;;;;;;;10.20;3.30;;;0.50;99.90;;;;;;5009908;28;20253;-70
2023/01/19 11:06:34;;;;;;;3.70;3.35;;;0.60;99.90;;;;;;5011016;28;20222;-69
2023/01/19 11:09:15;;;;;;;3.83;3.15;;;0.60;99.90;;;;;;4995148;28;20202;-69
2023/01/19 11:11:45;;;;;;;4.85;2.80;;;0.50;99.90;;;;;;5010414;28;20205;-69
2023/01/19 11:14:14;;;;;;;3.10;2.17;;;0.50;99.90;;;;;;5015460;28;20229;-68
2023/01/19 11:16:47;;;;;;;3.53;2.63;;;0.60;99.90;;;;;;5029841;28;20225;-69
2023/01/19 11:19:27;;;;;;;4.25;2.80;;;0.60;99.90;;;;;;5013764;28;20675;-69
2023/01/19 11:22:09;;;;;;;3.65;2.65;;;0.80;99.90;;;;;;5030766;28;20209;-69
2023/01/19 11:24:38;;;;;;;3.03;2.25;;;1.80;99.90;;;;;;5030746;28;20194;-69
2023/01/19 11:27:05;;;;;;;6.47;3.22;;;3.70;99.90;;;;;;5030214;28;20586;-69
2023/01/19 11:29:32;;;;;;;3.58;2.75;;;6.10;99.90;;;;;;5030156;28;20271;-70
2023/01/19 11:32:12;;;;;;;3.05;2.58;;;6.90;99.90;;;;;;5030360;28;20201;-69
2023/01/19 11:34:38;;;;;;;5.45;3.20;;;7.20;99.90;;;;;;5030682;28;20217;-69
2023/01/19 11:37:25;;;;;;;4.28;3.88;;;7.00;99.90;;;;;;5030136;28;20205;-69
2023/01/19 11:39:53;;;;;;;7.28;3.20;;;6.80;99.90;;;;;;5028896;28;20208;-69
2023/01/19 11:42:21;;;;;;;2.90;2.45;;;6.20;99.90;;;;;;5030446;28;20201;-69
2023/01/19 11:44:55;;;;;;;3.75;2.45;;;5.70;99.90;;;;;;5030007;28;20209;-69
2023/01/19 11:47:27;;;;;;;2.63;2.35;;;5.20;99.90;;;;;;5030188;28;20699;-69
2023/01/19 11:49:59;;;;;;;3.78;2.88;;;4.40;99.90;;;;;;5029733;28;20206;-69
2023/01/19 11:52:31;;;;;;;3.60;2.80;;;4.10;99.90;;;;;;5029725;28;20206;-69
2023/01/19 11:55:06;;;;;;;4.15;2.60;;;4.00;99.90;;;;;;5029789;28;20229;-69
2023/01/19 11:57:32;;;;;;;2.90;2.70;;;3.90;99.90;;;;;;5029779;28;20223;-70
2023/01/19 12:00:03;;;;;;;3.97;2.10;;;3.60;99.90;;;;;;5029934;28;20206;-70
2023/01/19 12:02:42;;;;;;;3.20;2.90;;;3.50;99.90;;;;;;5029782;28;20202;-69
2023/01/19 12:05:15;;;;;;;4.53;2.90;;;3.30;99.90;;;;;;5015990;28;20221;-69
2023/01/19 12:07:45;;;;;;;3.72;2.90;;;3.00;99.90;;;;;;5008494;28;20202;-69
2023/01/19 12:10:22;;;;;;;3.47;2.88;;;2.80;99.90;;;;;;5009310;28;20206;-69
2023/01/19 12:12:49;;;;;;;3.13;2.30;;;2.80;99.90;;;;;;5009817;28;20217;-69
2023/01/19 12:15:22;;;;;;;4.28;2.88;;;2.70;99.90;;;;;;5009721;28;20241;-69
2023/01/19 12:17:53;;;;;;;3.92;2.83;;;2.60;99.90;;;;;;5009027;28;20209;-69
2023/01/19 12:20:27;;;;;;;4.80;2.85;;;2.40;99.90;;;;;;5009329;28;20471;-70
2023/01/19 12:23:03;;;;;;;3.20;2.28;;;2.20;99.90;;;;;;5009760;28;20206;-69
2023/01/19 12:25:43;;;;;;;7.22;2.83;;;1.80;99.90;;;;;;5009390;28;20226;-69
2023/01/19 12:28:13;;;;;;;5.68;3.17;;;1.70;99.90;;;;;;5009377;28;20206;-69
2023/01/19 12:30:40;;;;;;;6.30;2.80;;;1.50;99.90;;;;;;5009044;28;20206;-69
2023/01/19 12:33:36;;;;;;;3.85;3.00;;;1.40;99.90;;;;;;5009430;28;20209;-69
2023/01/19 12:36:06;;;;;;;6.78;2.70;;;1.40;99.90;;;;;;5009637;28;20226;-69
2023/01/19 12:38:44;;;;;;;3.95;2.90;;;1.40;99.90;;;;;;5008933;28;20206;-68
2023/01/19 12:41:28;;;;;;;3.95;2.65;;;1.30;99.90;;;;;;5026469;28;20198;-69
2023/01/19 12:44:29;;;;;;;3.15;2.28;;;1.30;99.90;;;;;;5029255;28;20213;-71
2023/01/19 12:47:02;;;;;;;2.25;2.08;;;1.30;99.90;;;;;;4967654;28;20653;-71
2023/01/19 12:49:34;;;;;;;3.03;2.55;;;1.20;99.90;;;;;;5018332;28;20296;-70
2023/01/19 12:52:14;;;;;;;2.88;2.63;;;1.20;99.90;;;;;;5029349;28;20263;-71
2023/01/19 12:54:49;;;;;;;3.08;2.53;;;1.10;99.90;;;;;;5028128;28;20226;-70
2023/01/19 12:57:22;;;;;;;3.42;3.05;;;1.00;99.90;;;;;;5028722;28;20201;-71
2023/01/19 12:59:56;;;;;;;4.40;3.17;;;1.00;99.90;;;;;;5029394;28;20213;-70
2023/01/19 13:02:51;;;;;;;3.53;2.60;;;0.90;99.90;;;;;;5030063;28;20229;-71
2023/01/19 13:05:57;;;;;;;3.17;2.88;;;0.80;99.90;;;;;;5030078;28;20241;-70
2023/01/19 13:08:29;;;;;;;2.85;2.25;;;0.80;99.90;;;;;;5029640;28;20212;-70
2023/01/19 13:11:20;;;;;;;4.13;2.92;;;0.80;99.90;;;;;;5029804;28;20644;-70